sensor_id;sensor_type;location;lat;lon;timestamp;P1;durP1;ratioP1;P2;durP2;ratioP2
11518;SDS011;5816;48.228;14.116;2023-11-21T13:13:29;28.23;;;26.30;;
11518;SDS011;5816;48.228;14.116;2023-11-21T13:18:32;26.63;;;24.73;;
11518;SDS011;5816;48.228;14.116;2023-11-21T13:23:35;26.60;;;24.50;;
11518;SDS011;5816;48.228;14.116;2023-11-21T13:28:39;26.27;;;24.37;;
11518;SDS011;5816;48.228;14.116;2023-11-21T13:33:43;26.57;;;24.67;;
11518;SDS011;5816;48.228;14.116;2023-11-21T13:38:54;26.50;;;24.60;;
11518;SDS011;5816;48.228;14.116;2023-11-21T13:43:56;26.57;;;24.47;;
11518;SDS011;5816;48.228;14.116;2023-11-21T13:49:18;26.90;;;24.90;;
11518;SDS011;5816;48.228;14.116;2023-11-21T13:54:22;27.40;;;25.30;;
11518;SDS011;5816;48.228;14.116;2023-11-21T13:59:26;26.40;;;24.50;;
11518;SDS011;5816;48.228;14.116;2023-11-21T14:04:31;26.53;;;24.47;;
11518;SDS011;5816;48.228;14.116;2023-11-21T14:09:51;26.53;;;24.43;;
11518;SDS011;5816;48.228;14.116;2023-11-21T14:14:54;26.73;;;24.83;;
11518;SDS011;5816;48.228;14.116;2023-11-21T14:19:56;27.30;;;25.23;;
11518;SDS011;5816;48.228;14.116;2023-11-21T14:24:58;27.80;;;25.60;;
11518;SDS011;5816;48.228;14.116;2023-11-21T14:30:01;27.13;;;25.13;;
11518;SDS011;5816;48.228;14.116;2023-11-21T14:35:03;26.30;;;24.33;;
11518;SDS011;5816;48.228;14.116;2023-11-21T14:40:05;25.97;;;24.17;;
11518;SDS011;5816;48.228;14.116;2023-11-21T14:45:09;26.10;;;24.10;;
11518;SDS011;5816;48.228;14.116;2023-11-21T14:50:13;26.67;;;24.77;;
11518;SDS011;5816;48.228;14.116;2023-11-21T14:55:34;26.83;;;24.93;;
11518;SDS011;5816;48.228;14.116;2023-11-21T15:00:58;26.67;;;24.53;;
11518;SDS011;5816;48.228;14.116;2023-11-21T15:06:02;25.93;;;24.03;;
11518;SDS011;5816;48.228;14.116;2023-11-21T15:11:20;25.33;;;23.50;;
11518;SDS011;5816;48.228;14.116;2023-11-21T15:16:26;25.47;;;23.77;;
11518;SDS011;5816;48.228;14.116;2023-11-21T15:21:28;26.17;;;24.20;;
11518;SDS011;5816;48.228;14.116;2023-11-21T15:26:30;24.90;;;23.10;;
11518;SDS011;5816;48.228;14.116;2023-11-21T15:31:32;24.13;;;22.40;;
11518;SDS011;5816;48.228;14.116;2023-11-21T15:36:34;25.00;;;23.20;;
11518;SDS011;5816;48.228;14.116;2023-11-21T15:41:38;26.03;;;24.13;;
11518;SDS011;5816;48.228;14.116;2023-11-21T15:46:40;26.07;;;24.17;;
11518;SDS011;5816;48.228;14.116;2023-11-21T15:51:44;26.43;;;24.43;;
11518;SDS011;5816;48.228;14.116;2023-11-21T15:56:48;24.10;;;22.30;;
11518;SDS011;5816;48.228;14.116;2023-11-21T16:01:50;25.23;;;23.57;;
11518;SDS011;5816;48.228;14.116;2023-11-21T16:06:52;25.03;;;23.10;;
11518;SDS011;5816;48.228;14.116;2023-11-21T16:11:54;24.87;;;23.17;;
11518;SDS011;5816;48.228;14.116;2023-11-21T16:17:01;25.57;;;23.93;;
11518;SDS011;5816;48.228;14.116;2023-11-21T16:22:04;25.83;;;24.13;;
11518;SDS011;5816;48.228;14.116;2023-11-21T16:27:07;24.93;;;23.17;;
11518;SDS011;5816;48.228;14.116;2023-11-21T16:32:12;27.02;;;25.00;;
11518;SDS011;5816;48.228;14.116;2023-11-21T16:37:13;26.57;;;24.57;;
11518;SDS011;5816;48.228;14.116;2023-11-21T16:42:15;26.57;;;24.67;;
11518;SDS011;5816;48.228;14.116;2023-11-21T16:47:17;31.10;;;28.53;;
11518;SDS011;5816;48.228;14.116;2023-11-21T16:52:19;28.13;;;26.03;;
11518;SDS011;5816;48.228;14.116;2023-11-21T16:57:24;27.60;;;25.70;;
11518;SDS011;5816;48.228;14.116;2023-11-21T17:02:26;28.97;;;26.87;;
11518;SDS011;5816;48.228;14.116;2023-11-21T17:07:27;26.53;;;24.67;;
11518;SDS011;5816;48.228;14.116;2023-11-21T17:12:30;26.07;;;24.27;;
11518;SDS011;5816;48.228;14.116;2023-11-21T17:17:32;28.25;;;26.15;;
11518;SDS011;5816;48.228;14.116;2023-11-21T17:22:35;28.03;;;25.73;;
11518;SDS011;5816;48.228;14.116;2023-11-21T17:27:37;28.03;;;25.93;;
11518;SDS011;5816;48.228;14.116;2023-11-21T17:32:39;27.73;;;25.73;;
11518;SDS011;5816;48.228;14.116;2023-11-21T17:37:44;29.50;;;27.23;;
11518;SDS011;5816;48.228;14.116;2023-11-21T17:42:46;26.40;;;24.70;;
11518;SDS011;5816;48.228;14.116;2023-11-21T17:47:47;27.63;;;25.53;;
11518;SDS011;5816;48.228;14.116;2023-11-21T17:52:49;29.33;;;26.93;;
11518;SDS011;5816;48.228;14.116;2023-11-21T17:57:51;29.37;;;26.97;;
11518;SDS011;5816;48.228;14.116;2023-11-21T18:02:53;27.50;;;25.50;;
11518;SDS011;5816;48.228;14.116;2023-11-21T18:07:57;26.83;;;24.90;;
11518;SDS011;5816;48.228;14.116;2023-11-21T18:12:59;27.33;;;25.07;;
11518;SDS011;5816;48.228;14.116;2023-11-21T18:18:01;27.37;;;25.27;;
11518;SDS011;5816;48.228;14.116;2023-11-21T18:23:03;28.20;;;25.87;;
11518;SDS011;5816;48.228;14.116;2023-11-21T18:28:04;25.73;;;23.93;;
11518;SDS011;5816;48.228;14.116;2023-11-21T18:33:06;27.13;;;25.10;;
11518;SDS011;5816;48.228;14.116;2023-11-21T18:38:08;25.77;;;24.07;;
11518;SDS011;5816;48.228;14.116;2023-11-21T18:43:11;26.53;;;24.43;;
11518;SDS011;5816;48.228;14.116;2023-11-21T18:48:13;31.87;;;28.97;;
11518;SDS011;5816;48.228;14.116;2023-11-21T18:53:17;36.50;;;32.97;;
11518;SDS011;5816;48.228;14.116;2023-11-21T18:58:19;31.93;;;29.00;;
11518;SDS011;5816;48.228;14.116;2023-11-21T19:03:20;31.23;;;28.37;;
11518;SDS011;5816;48.228;14.116;2023-11-21T19:08:22;33.33;;;30.37;;
11518;SDS011;5816;48.228;14.116;2023-11-21T19:13:25;31.30;;;28.73;;
11518;SDS011;5816;48.228;14.116;2023-11-21T19:18:27;33.17;;;30.47;;
11518;SDS011;5816;48.228;14.116;2023-11-21T19:23:31;32.97;;;30.47;;
11518;SDS011;5816;48.228;14.116;2023-11-21T19:28:33;32.27;;;29.83;;
11518;SDS011;5816;48.228;14.116;2023-11-21T19:33:34;30.53;;;28.20;;
11518;SDS011;5816;48.228;14.116;2023-11-21T19:38:37;29.07;;;27.00;;
11518;SDS011;5816;48.228;14.116;2023-11-21T19:43:39;30.80;;;28.70;;
11518;SDS011;5816;48.228;14.116;2023-11-21T19:48:41;29.63;;;27.67;;
11518;SDS011;5816;48.228;14.116;2023-11-21T19:53:44;31.47;;;29.30;;
11518;SDS011;5816;48.228;14.116;2023-11-21T19:58:46;35.17;;;32.27;;
11518;SDS011;5816;48.228;14.116;2023-11-21T20:03:48;34.00;;;31.23;;
11518;SDS011;5816;48.228;14.116;2023-11-21T20:08:53;34.57;;;31.67;;
11518;SDS011;5816;48.228;14.116;2023-11-21T20:13:55;35.43;;;32.23;;
11518;SDS011;5816;48.228;14.116;2023-11-21T20:18:58;34.33;;;31.37;;
11518;SDS011;5816;48.228;14.116;2023-11-21T20:24:00;31.37;;;29.17;;
11518;SDS011;5816;48.228;14.116;2023-11-21T20:29:03;31.50;;;29.27;;
11518;SDS011;5816;48.228;14.116;2023-11-21T20:34:04;29.63;;;27.57;;
11518;SDS011;5816;48.228;14.116;2023-11-21T20:39:06;29.87;;;27.80;;
11518;SDS011;5816;48.228;14.116;2023-11-21T20:44:09;29.67;;;27.47;;
11518;SDS011;5816;48.228;14.116;2023-11-21T20:49:11;30.43;;;28.03;;
